createdAt,value
2018-12-23T00:00:31.630Z,61.28
2018-12-23T00:01:31.823Z,59.33
2018-12-23T00:02:32.005Z,60.06
2018-12-23T00:03:32.186Z,62.50
2018-12-23T00:04:32.368Z,60.06
2018-12-23T00:05:32.548Z,62.26
2018-12-23T00:06:32.733Z,61.04
2018-12-23T00:07:32.917Z,60.30
2018-12-23T00:08:33.102Z,60.30
2018-12-23T00:09:33.282Z,60.79
2018-12-23T00:10:33.475Z,61.77
2018-12-23T00:11:33.652Z,61.52
2018-12-23T00:12:33.831Z,62.74
2018-12-23T00:13:34.016Z,61.28
2018-12-23T00:14:34.198Z,60.79
2018-12-23T00:15:34.376Z,61.52
2018-12-23T00:16:34.559Z,60.79
2018-12-23T00:17:34.741Z,59.33
2018-12-23T00:18:34.931Z,59.08
2018-12-23T00:19:35.109Z,61.28
2018-12-23T00:20:35.292Z,61.77
2018-12-23T00:21:35.483Z,61.04
2018-12-23T00:22:35.670Z,57.86
2018-12-23T00:23:35.858Z,64.70
2018-12-23T00:24:36.041Z,60.79
2018-12-23T00:25:36.221Z,59.57
2018-12-23T00:26:36.402Z,57.62
2018-12-23T00:27:36.588Z,60.30
2018-12-23T00:28:36.773Z,59.08
2018-12-23T00:29:36.958Z,60.30
2018-12-23T00:30:37.149Z,59.33
2018-12-23T00:31:37.328Z,59.33
2018-12-23T00:32:37.519Z,57.86
2018-12-23T00:33:37.695Z,59.81
2018-12-23T00:34:37.896Z,58.11
2018-12-23T00:35:38.062Z,57.86
2018-12-23T00:36:38.261Z,57.13
2018-12-23T00:37:38.441Z,58.11
2018-12-23T00:38:38.625Z,57.37
2018-12-23T00:39:38.806Z,57.37
2018-12-23T00:40:38.989Z,55.18
2018-12-23T00:41:39.172Z,60.79
2018-12-23T00:42:39.355Z,59.08
2018-12-23T00:43:39.534Z,61.28
2018-12-23T00:44:39.874Z,58.11
2018-12-23T00:45:39.952Z,58.84
2018-12-23T00:46:40.135Z,56.88
2018-12-23T00:47:40.324Z,59.08
2018-12-23T00:48:40.502Z,57.86
2018-12-23T00:49:40.686Z,56.88
2018-12-23T00:50:40.862Z,58.11
2018-12-23T00:51:41.066Z,56.88
2018-12-23T00:52:41.248Z,60.06
2018-12-23T00:53:41.447Z,58.35
2018-12-23T00:54:41.721Z,55.91
2018-12-23T00:55:41.793Z,58.59
2018-12-23T00:56:41.975Z,57.13
2018-12-23T00:57:42.161Z,58.11
2018-12-23T00:58:42.342Z,58.59
2018-12-23T00:59:42.531Z,58.84
2018-12-23T01:00:42.716Z,56.15
2018-12-23T01:01:42.896Z,62.26
2018-12-23T01:02:43.091Z,58.59
2018-12-23T01:03:43.270Z,57.37
2018-12-23T01:04:43.456Z,59.57
2018-12-23T01:05:43.633Z,56.40
2018-12-23T01:06:43.821Z,59.81
2018-12-23T01:07:44.003Z,58.84
2018-12-23T01:08:44.186Z,59.08
2018-12-23T01:09:44.372Z,56.88
2018-12-23T01:10:44.548Z,55.66
2018-12-23T01:11:44.733Z,57.37
2018-12-23T01:12:44.914Z,56.40
2018-12-23T01:13:45.090Z,58.11
2018-12-23T01:14:45.285Z,58.11
2018-12-23T01:15:45.465Z,58.35
2018-12-23T01:16:45.650Z,58.35
2018-12-23T01:17:45.858Z,60.06
2018-12-23T01:18:46.022Z,60.06
2018-12-23T01:19:46.207Z,57.37
2018-12-23T01:20:46.388Z,56.88
2018-12-23T01:21:46.568Z,57.62
2018-12-23T01:22:46.747Z,60.06
2018-12-23T01:23:46.960Z,59.57
2018-12-23T01:24:47.138Z,55.66
2018-12-23T01:25:47.329Z,58.35
2018-12-23T01:26:47.507Z,62.50
2018-12-23T01:27:47.686Z,56.88
2018-12-23T01:28:47.875Z,67.63
2018-12-23T01:29:48.054Z,56.40
2018-12-23T01:30:48.234Z,58.59
2018-12-23T01:31:48.415Z,60.55
2018-12-23T01:32:48.603Z,57.62
2018-12-23T01:33:48.783Z,57.86
2018-12-23T01:34:48.969Z,56.64
2018-12-23T01:35:49.158Z,59.08
2018-12-23T01:36:49.338Z,58.84
2018-12-23T01:37:49.529Z,56.64
2018-12-23T01:38:49.712Z,58.84
2018-12-23T01:39:49.893Z,56.40
2018-12-23T01:40:50.079Z,55.42
2018-12-23T01:41:50.274Z,58.84
2018-12-23T01:42:50.469Z,59.81
2018-12-23T01:43:50.653Z,56.88
2018-12-23T01:44:50.827Z,60.06
2018-12-23T01:45:51.019Z,55.66
2018-12-23T01:46:51.195Z,55.91
2018-12-23T01:47:51.382Z,57.37
2018-12-23T01:48:51.561Z,62.99
2018-12-23T01:49:51.748Z,54.69
2018-12-23T01:50:51.930Z,56.15
2018-12-23T01:51:52.115Z,57.13
2018-12-23T01:52:52.298Z,58.59
2018-12-23T01:53:52.481Z,58.84
2018-12-23T01:54:52.660Z,55.66
2018-12-23T01:55:52.842Z,57.37
2018-12-23T01:56:53.025Z,58.35
2018-12-23T01:57:53.200Z,55.91
2018-12-23T01:58:53.387Z,61.52
2018-12-23T01:59:53.569Z,56.64
2018-12-23T02:00:53.746Z,57.62
2018-12-23T02:01:53.931Z,57.37
2018-12-23T02:02:54.134Z,58.84
2018-12-23T02:03:54.321Z,58.59
2018-12-23T02:04:54.509Z,57.13
2018-12-23T02:05:54.688Z,58.35
2018-12-23T02:06:54.867Z,57.13
2018-12-23T02:07:55.049Z,56.64
2018-12-23T02:08:55.235Z,58.11
2018-12-23T02:09:55.421Z,54.93
2018-12-23T02:10:55.605Z,59.57
2018-12-23T02:11:55.790Z,58.11
2018-12-23T02:12:55.971Z,55.42
2018-12-23T02:13:56.156Z,57.13
2018-12-23T02:14:56.344Z,56.88
2018-12-23T02:15:56.526Z,63.72
2018-12-23T02:16:56.713Z,56.40
2018-12-23T02:17:56.903Z,59.33
2018-12-23T02:18:57.080Z,59.57
2018-12-23T02:19:57.270Z,58.59
2018-12-23T02:20:57.448Z,57.37
2018-12-23T02:21:57.635Z,56.40
2018-12-23T02:22:57.816Z,58.35
2018-12-23T02:23:58.013Z,58.35
2018-12-23T02:24:58.192Z,58.35
2018-12-23T02:25:58.384Z,65.43
2018-12-23T02:26:58.568Z,62.50
2018-12-23T02:27:58.759Z,58.11
2018-12-23T02:28:58.941Z,56.64
2018-12-23T02:29:59.120Z,57.13
2018-12-23T02:30:59.305Z,60.06
2018-12-23T02:31:59.489Z,60.79
2018-12-23T02:32:59.685Z,63.23
2018-12-23T02:33:59.867Z,59.08
2018-12-23T02:35:00.249Z,66.16
2018-12-23T02:36:00.233Z,59.33
2018-12-23T02:37:00.415Z,60.30
2018-12-23T02:38:00.606Z,59.81
2018-12-23T02:39:00.783Z,59.81
2018-12-23T02:40:00.965Z,58.84
2018-12-23T02:41:01.151Z,64.45
2018-12-23T02:42:01.340Z,56.88
2018-12-23T02:43:01.525Z,57.86
2018-12-23T02:44:01.699Z,59.81
2018-12-23T02:45:01.893Z,62.01
2018-12-23T02:46:02.074Z,59.08
2018-12-23T02:47:02.259Z,58.11
2018-12-23T02:48:02.438Z,60.30
2018-12-23T02:49:02.623Z,56.15
2018-12-23T02:50:02.913Z,59.57
2018-12-23T02:51:02.997Z,55.66
2018-12-23T02:52:03.167Z,60.55
2018-12-23T02:53:03.354Z,56.40
2018-12-23T02:54:03.544Z,56.40
2018-12-23T02:55:03.729Z,57.37
2018-12-23T02:56:03.907Z,53.47
2018-12-23T02:57:04.103Z,57.62
2018-12-23T02:58:04.286Z,58.11
2018-12-23T02:59:04.470Z,57.37
2018-12-23T03:00:04.654Z,59.33
2018-12-23T03:01:04.837Z,58.84
2018-12-23T03:02:05.016Z,57.62
2018-12-23T03:03:05.201Z,56.88
2018-12-23T03:04:05.389Z,53.22
2018-12-23T03:05:05.568Z,58.35
2018-12-23T03:06:06.484Z,55.91
2018-12-23T03:07:05.932Z,57.37
2018-12-23T03:08:06.112Z,55.18
2018-12-23T03:09:06.290Z,58.84
2018-12-23T03:10:06.474Z,59.57
2018-12-23T03:11:06.659Z,57.62
2018-12-23T03:12:06.837Z,56.40
2018-12-23T03:13:07.025Z,58.84
2018-12-23T03:14:07.210Z,56.15
2018-12-23T03:15:07.389Z,59.08
2018-12-23T03:16:07.573Z,58.11
2018-12-23T03:17:07.756Z,59.81
2018-12-23T03:18:07.938Z,58.59
2018-12-23T03:19:08.121Z,57.86
2018-12-23T03:20:08.302Z,57.37
2018-12-23T03:21:08.503Z,57.13
2018-12-23T03:22:08.688Z,54.93
2018-12-23T03:23:08.873Z,56.88
2018-12-23T03:24:09.049Z,55.18
2018-12-23T03:25:09.235Z,59.81
2018-12-23T03:26:09.418Z,59.57
2018-12-23T03:27:09.602Z,57.62
2018-12-23T03:28:09.778Z,56.64
2018-12-23T03:29:09.964Z,57.13
2018-12-23T03:30:10.157Z,57.13
2018-12-23T03:31:10.334Z,56.15
2018-12-23T03:32:10.518Z,59.08
2018-12-23T03:33:10.708Z,59.57
2018-12-23T03:34:10.881Z,59.33
2018-12-23T03:35:11.065Z,58.11
2018-12-23T03:36:15.314Z,57.13
2018-12-23T03:37:11.432Z,54.44
2018-12-23T03:38:11.607Z,57.37
2018-12-23T03:39:11.804Z,54.20
2018-12-23T03:40:11.976Z,58.35
2018-12-23T03:41:12.162Z,55.91
2018-12-23T03:42:12.347Z,57.13
2018-12-23T03:43:12.525Z,59.81
2018-12-23T03:44:12.706Z,60.55
2018-12-23T03:45:12.947Z,56.88
2018-12-23T03:46:13.079Z,61.77
2018-12-23T03:47:13.264Z,59.08
2018-12-23T03:48:13.453Z,57.62
2018-12-23T03:49:13.641Z,58.11
2018-12-23T03:50:13.824Z,60.30
2018-12-23T03:51:14.003Z,56.88
2018-12-23T03:52:14.190Z,56.40
2018-12-23T03:53:14.372Z,56.64
2018-12-23T03:54:14.557Z,52.98
2018-12-23T03:55:14.736Z,59.33
2018-12-23T03:56:14.918Z,64.21
2018-12-23T03:57:15.106Z,59.81
2018-12-23T03:58:15.291Z,59.33
2018-12-23T03:59:15.471Z,61.28
2018-12-23T04:00:15.656Z,58.11
2018-12-23T04:01:15.841Z,62.01
2018-12-23T04:02:16.023Z,57.13
2018-12-23T04:03:16.204Z,60.30
2018-12-23T04:04:16.388Z,59.57
2018-12-23T04:05:16.577Z,60.06
2018-12-23T04:06:24.390Z,57.86
2018-12-23T04:07:16.939Z,58.59
2018-12-23T04:08:17.137Z,57.62
2018-12-23T04:09:17.299Z,58.59
2018-12-23T04:10:17.482Z,59.57
2018-12-23T04:11:17.669Z,57.86
2018-12-23T04:12:17.851Z,57.37
2018-12-23T04:13:18.034Z,55.42
2018-12-23T04:14:18.207Z,58.84
2018-12-23T04:15:18.402Z,55.66
2018-12-23T04:16:18.588Z,60.30
2018-12-23T04:17:18.766Z,61.77
2018-12-23T04:18:18.951Z,57.37
2018-12-23T04:19:19.124Z,60.55
2018-12-23T04:20:19.306Z,56.64
2018-12-23T04:21:19.599Z,62.26
2018-12-23T04:22:19.672Z,59.81
2018-12-23T04:23:19.857Z,60.30
2018-12-23T04:24:20.033Z,60.79
2018-12-23T04:25:20.227Z,59.33
2018-12-23T04:26:20.413Z,58.35
2018-12-23T04:27:20.596Z,58.11
2018-12-23T04:28:20.772Z,59.57
2018-12-23T04:29:20.959Z,58.11
2018-12-23T04:30:21.159Z,54.69
2018-12-23T04:31:21.330Z,59.33
2018-12-23T04:32:21.512Z,57.13
2018-12-23T04:33:21.698Z,61.04
2018-12-23T04:34:21.880Z,59.81
2018-12-23T04:35:22.064Z,58.11
2018-12-23T04:36:22.249Z,59.33
2018-12-23T04:37:22.424Z,58.59
2018-12-23T04:38:22.614Z,62.50
2018-12-23T04:39:22.795Z,58.11
2018-12-23T04:40:22.986Z,57.86
2018-12-23T04:41:23.160Z,62.01
2018-12-23T04:42:23.340Z,58.35
2018-12-23T04:43:23.525Z,62.01
2018-12-23T04:44:23.708Z,56.40
2018-12-23T04:45:23.892Z,55.91
2018-12-23T04:46:24.341Z,62.01
2018-12-23T04:47:24.267Z,60.06
2018-12-23T04:48:24.451Z,60.30
2018-12-23T04:49:24.645Z,55.42
2018-12-23T04:50:24.824Z,57.62
2018-12-23T04:51:25.004Z,58.11
2018-12-23T04:52:25.193Z,61.77
2018-12-23T04:53:25.372Z,64.21
2018-12-23T04:54:25.561Z,61.28
2018-12-23T04:55:25.741Z,59.33
2018-12-23T04:56:25.927Z,62.01
2018-12-23T04:57:26.110Z,62.74
2018-12-23T04:58:26.302Z,63.96
2018-12-23T04:59:26.479Z,57.86
2018-12-23T05:00:26.667Z,61.52
2018-12-23T05:01:26.843Z,61.77
2018-12-23T05:02:27.035Z,62.74
2018-12-23T05:03:27.220Z,58.59
2018-12-23T05:04:27.398Z,62.01
2018-12-23T05:05:27.582Z,60.30
2018-12-23T05:06:27.759Z,64.45
2018-12-23T05:07:27.942Z,60.79
2018-12-23T05:08:28.122Z,60.79
2018-12-23T05:09:28.306Z,62.74
2018-12-23T05:10:28.483Z,58.35
2018-12-23T05:11:28.669Z,58.59
2018-12-23T05:12:28.853Z,58.84
2018-12-23T05:13:29.034Z,60.55
2018-12-23T05:14:29.217Z,59.81
2018-12-23T05:15:29.397Z,57.37
2018-12-23T05:16:29.591Z,58.11
2018-12-23T05:17:29.775Z,59.81
2018-12-23T05:18:29.958Z,60.30
2018-12-23T05:19:30.143Z,60.06
2018-12-23T05:20:30.322Z,62.26
2018-12-23T05:21:30.499Z,60.06
2018-12-23T05:22:30.681Z,61.28
2018-12-23T05:23:30.868Z,60.06
2018-12-23T05:24:31.049Z,64.21
2018-12-23T05:25:31.236Z,65.19
2018-12-23T05:26:31.456Z,60.55
2018-12-23T05:27:31.598Z,59.81
2018-12-23T05:28:31.784Z,61.77
2018-12-23T05:29:31.970Z,60.30
2018-12-23T05:30:32.147Z,61.04
2018-12-23T05:31:32.334Z,59.08
2018-12-23T05:32:32.522Z,60.06
2018-12-23T05:33:32.714Z,60.06
2018-12-23T05:34:32.891Z,59.81
2018-12-23T05:35:33.084Z,60.30
2018-12-23T05:36:33.261Z,63.23
2018-12-23T05:37:33.446Z,59.81
2018-12-23T05:38:33.626Z,59.08
2018-12-23T05:39:33.816Z,59.33
2018-12-23T05:40:33.998Z,59.08
2018-12-23T05:41:34.171Z,59.08
2018-12-23T05:42:34.366Z,61.52
2018-12-23T05:43:34.552Z,63.48
2018-12-23T05:44:34.736Z,61.04
2018-12-23T05:45:34.910Z,65.19
2018-12-23T05:46:35.096Z,59.08
2018-12-23T05:47:35.372Z,59.81
2018-12-23T05:48:35.448Z,57.13
2018-12-23T05:49:35.642Z,59.57
2018-12-23T05:50:35.825Z,59.33
2018-12-23T05:51:36.003Z,57.13
2018-12-23T05:52:36.183Z,56.40
2018-12-23T05:53:36.366Z,58.35
2018-12-23T05:54:36.552Z,57.86
2018-12-23T05:55:36.735Z,57.86
2018-12-23T05:56:36.917Z,59.08
2018-12-23T05:57:37.097Z,58.11
2018-12-23T05:58:37.285Z,59.57
2018-12-23T05:59:37.470Z,57.37
2018-12-23T06:00:37.665Z,61.04
2018-12-23T06:01:37.836Z,58.35
2018-12-23T06:02:38.018Z,58.59
2018-12-23T06:03:38.201Z,58.35
2018-12-23T06:04:38.393Z,59.57
2018-12-23T06:05:38.569Z,56.40
2018-12-23T06:06:38.749Z,58.35
2018-12-23T06:07:38.934Z,63.48
2018-12-23T06:08:39.122Z,60.79
2018-12-23T06:09:39.308Z,60.30
2018-12-23T06:10:39.486Z,61.28
2018-12-23T06:11:39.663Z,60.30
2018-12-23T06:12:39.857Z,61.52
2018-12-23T06:13:40.032Z,60.30
2018-12-23T06:14:40.215Z,59.57
2018-12-23T06:15:40.396Z,60.06
2018-12-23T06:16:40.586Z,60.06
2018-12-23T06:17:40.766Z,61.04
2018-12-23T06:18:40.953Z,61.28
2018-12-23T06:19:41.128Z,60.55
2018-12-23T06:20:41.320Z,59.33
2018-12-23T06:21:41.503Z,61.77
2018-12-23T06:22:41.683Z,59.57
2018-12-23T06:23:41.872Z,63.23
2018-12-23T06:24:42.053Z,60.06
2018-12-23T06:25:42.232Z,59.08
2018-12-23T06:26:42.421Z,62.99
2018-12-23T06:27:42.604Z,60.30
2018-12-23T06:28:42.790Z,61.04
2018-12-23T06:29:42.972Z,60.30
2018-12-23T06:30:43.152Z,62.74
2018-12-23T06:31:43.336Z,62.99
2018-12-23T06:32:43.522Z,64.45
2018-12-23T06:33:43.703Z,63.48
2018-12-23T06:34:43.891Z,63.23
2018-12-23T06:35:44.067Z,60.30
2018-12-23T06:36:44.252Z,58.59
2018-12-23T06:37:44.431Z,62.50
2018-12-23T06:38:44.616Z,65.67
2018-12-23T06:39:44.801Z,62.50
2018-12-23T06:40:44.982Z,62.01
2018-12-23T06:41:45.167Z,63.23
2018-12-23T06:42:45.342Z,60.79
2018-12-23T06:43:45.535Z,59.08
2018-12-23T06:44:45.706Z,58.59
2018-12-23T06:45:45.884Z,62.01
2018-12-23T06:46:46.074Z,61.52
2018-12-23T06:47:46.258Z,59.57
2018-12-23T06:48:46.441Z,59.81
2018-12-23T06:49:46.644Z,59.57
2018-12-23T06:50:46.827Z,62.26
2018-12-23T06:51:47.018Z,60.79
2018-12-23T06:52:47.202Z,61.04
2018-12-23T06:53:47.385Z,59.81
2018-12-23T06:54:47.564Z,60.06
2018-12-23T06:55:47.748Z,60.30
2018-12-23T06:56:47.938Z,61.77
2018-12-23T06:57:48.115Z,59.81
2018-12-23T06:58:48.294Z,61.52
2018-12-23T06:59:48.482Z,62.50
2018-12-23T07:00:48.663Z,61.77
2018-12-23T07:01:48.849Z,62.01
2018-12-23T07:02:49.028Z,60.06
2018-12-23T07:03:49.214Z,62.01
2018-12-23T07:04:49.394Z,60.79
2018-12-23T07:05:49.581Z,62.99
2018-12-23T07:06:49.764Z,60.79
2018-12-23T07:07:49.949Z,61.28
2018-12-23T07:08:50.133Z,60.79
2018-12-23T07:09:50.311Z,60.06
2018-12-23T07:10:50.499Z,60.55
2018-12-23T07:11:50.684Z,59.33
2018-12-23T07:12:50.863Z,61.28
2018-12-23T07:13:51.047Z,60.55
2018-12-23T07:14:51.229Z,60.06
2018-12-23T07:15:51.416Z,57.86
2018-12-23T07:16:51.593Z,62.01
2018-12-23T07:17:51.776Z,59.08
2018-12-23T07:18:51.962Z,62.99
2018-12-23T07:19:52.145Z,60.06
2018-12-23T07:20:52.331Z,62.01
2018-12-23T07:21:52.505Z,59.81
2018-12-23T07:22:52.692Z,60.06
2018-12-23T07:23:52.874Z,60.30
2018-12-23T07:24:53.054Z,59.57
2018-12-23T07:25:53.239Z,61.28
2018-12-23T07:26:53.424Z,61.04
2018-12-23T07:27:53.607Z,64.45
2018-12-23T07:28:53.798Z,62.01
2018-12-23T07:29:53.983Z,60.55
2018-12-23T07:30:54.167Z,59.57
2018-12-23T07:31:54.350Z,62.26
2018-12-23T07:32:54.530Z,62.26
2018-12-23T07:33:54.721Z,65.43
2018-12-23T07:34:54.899Z,62.99
2018-12-23T07:35:55.088Z,63.96
2018-12-23T07:36:55.276Z,63.48
2018-12-23T07:37:55.458Z,61.28
2018-12-23T07:38:55.639Z,62.01
2018-12-23T07:39:55.830Z,60.06
2018-12-23T07:40:56.007Z,61.04
2018-12-23T07:41:56.192Z,59.57
2018-12-23T07:42:56.378Z,60.79
2018-12-23T07:43:56.556Z,62.50
2018-12-23T07:44:56.743Z,63.72
2018-12-23T07:45:56.936Z,62.26
2018-12-23T07:46:57.116Z,62.26
2018-12-23T07:47:57.303Z,62.50
2018-12-23T07:48:57.488Z,61.77
2018-12-23T07:49:57.667Z,61.77
2018-12-23T07:50:57.852Z,60.79
2018-12-23T07:51:58.028Z,59.33
2018-12-23T07:52:58.209Z,63.23
2018-12-23T07:53:58.387Z,61.04
2018-12-23T07:54:58.570Z,61.28
2018-12-23T07:55:59.475Z,60.79
2018-12-23T07:56:58.936Z,60.30
2018-12-23T07:57:59.118Z,61.28
2018-12-23T07:58:59.309Z,61.77
2018-12-23T07:59:59.483Z,64.45
2018-12-23T08:00:59.672Z,62.26
2018-12-23T08:01:59.856Z,60.79
2018-12-23T08:03:00.048Z,60.79
2018-12-23T08:04:00.228Z,60.55
2018-12-23T08:05:00.409Z,62.74
2018-12-23T08:06:00.593Z,61.77
2018-12-23T08:07:00.777Z,60.30
2018-12-23T08:08:00.966Z,61.04
2018-12-23T08:09:01.151Z,60.55
2018-12-23T08:10:01.328Z,62.26
2018-12-23T08:11:01.523Z,60.06
2018-12-23T08:12:01.710Z,60.30
2018-12-23T08:13:01.888Z,58.84
2018-12-23T08:14:02.069Z,63.48
2018-12-23T08:15:02.260Z,63.23
2018-12-23T08:16:02.435Z,61.04
2018-12-23T08:17:02.622Z,63.23
2018-12-23T08:18:02.810Z,59.08
2018-12-23T08:19:02.990Z,60.79
2018-12-23T08:20:03.169Z,59.81
2018-12-23T08:21:03.366Z,59.33
2018-12-23T08:22:03.546Z,60.30
2018-12-23T08:23:03.734Z,59.33
2018-12-23T08:24:03.919Z,62.74
2018-12-23T08:25:04.103Z,61.52
2018-12-23T08:26:04.288Z,61.04
2018-12-23T08:27:04.474Z,60.79
2018-12-23T08:28:04.672Z,62.01
2018-12-23T08:29:04.853Z,62.74
2018-12-23T08:30:05.023Z,61.77
2018-12-23T08:31:05.203Z,61.77
2018-12-23T08:32:05.388Z,62.26
2018-12-23T08:33:05.573Z,63.23
2018-12-23T08:34:05.743Z,62.74
2018-12-23T08:35:05.937Z,65.67
2018-12-23T08:36:06.121Z,64.70
2018-12-23T08:37:06.310Z,64.94
2018-12-23T08:38:06.494Z,62.50
2018-12-23T08:39:06.683Z,60.30
2018-12-23T08:40:06.909Z,61.77
2018-12-23T08:41:07.040Z,62.99
2018-12-23T08:42:07.213Z,62.01
2018-12-23T08:43:07.459Z,62.01
2018-12-23T08:44:07.523Z,61.28
2018-12-23T08:45:07.708Z,62.50
2018-12-23T08:46:07.893Z,62.74
2018-12-23T08:47:08.069Z,62.99
2018-12-23T08:48:08.263Z,61.77
2018-12-23T08:49:08.446Z,61.52
2018-12-23T08:50:08.623Z,63.23
2018-12-23T08:51:08.809Z,62.99
2018-12-23T08:52:09.003Z,62.74
2018-12-23T08:53:09.183Z,60.55
2018-12-23T08:54:09.387Z,60.55
2018-12-23T08:55:09.545Z,60.79
2018-12-23T08:56:09.731Z,62.50
2018-12-23T08:57:09.934Z,61.04
2018-12-23T08:58:10.127Z,62.01
2018-12-23T08:59:10.322Z,62.99
2018-12-23T09:00:10.508Z,60.79
2018-12-23T09:01:10.700Z,63.23
2018-12-23T09:02:10.873Z,67.87
2018-12-23T09:03:18.643Z,63.48
2018-12-23T09:04:11.236Z,62.99
2018-12-23T09:05:11.424Z,62.26
2018-12-23T09:06:11.628Z,62.50
2018-12-23T09:07:11.793Z,63.72
2018-12-23T09:08:12.117Z,62.50
2018-12-23T09:09:12.182Z,69.82
2018-12-23T09:10:12.367Z,63.23
2018-12-23T09:11:12.547Z,62.74
2018-12-23T09:12:12.735Z,65.43
2018-12-23T09:13:12.928Z,62.74
2018-12-23T09:14:13.107Z,62.01
2018-12-23T09:15:13.293Z,62.99
2018-12-23T09:16:13.481Z,64.21
2018-12-23T09:17:13.669Z,62.26
2018-12-23T09:18:19.339Z,62.26
2018-12-23T09:19:14.032Z,62.99
2018-12-23T09:20:14.216Z,63.23
2018-12-23T09:21:14.416Z,62.01
2018-12-23T09:22:14.584Z,62.01
2018-12-23T09:23:14.764Z,62.74
2018-12-23T09:24:15.003Z,61.77
2018-12-23T09:25:15.138Z,62.26
2018-12-23T09:26:15.324Z,61.52
2018-12-23T09:27:15.506Z,61.52
2018-12-23T09:28:15.700Z,62.50
2018-12-23T09:29:15.884Z,62.50
2018-12-23T09:30:16.067Z,62.50
2018-12-23T09:31:16.266Z,63.23
2018-12-23T09:32:16.440Z,61.52
2018-12-23T09:33:16.628Z,61.52
2018-12-23T09:34:16.859Z,62.74
2018-12-23T09:35:17.003Z,60.55
2018-12-23T09:36:17.193Z,62.50
2018-12-23T09:37:17.376Z,65.19
2018-12-23T09:38:17.564Z,62.50
2018-12-23T09:39:17.770Z,62.99
2018-12-23T09:40:17.948Z,61.77
2018-12-23T09:41:18.132Z,62.26
2018-12-23T09:42:18.319Z,62.74
2018-12-23T09:43:18.512Z,64.45
2018-12-23T09:44:18.711Z,67.63
2018-12-23T09:45:18.881Z,63.72
2018-12-23T09:46:19.066Z,63.96
2018-12-23T09:47:19.255Z,62.01
2018-12-23T09:48:19.440Z,62.99
2018-12-23T09:49:19.624Z,67.38
2018-12-23T09:50:19.821Z,63.72
2018-12-23T09:51:20.015Z,64.70
2018-12-23T09:52:20.277Z,64.21
2018-12-23T09:53:20.388Z,65.19
2018-12-23T09:54:20.584Z,66.16
2018-12-23T09:55:20.772Z,67.87
2018-12-23T09:56:20.959Z,64.21
2018-12-23T09:57:21.148Z,62.74
2018-12-23T09:58:21.328Z,63.96
2018-12-23T09:59:21.527Z,65.43
2018-12-23T10:00:21.740Z,63.72
2018-12-23T10:01:21.925Z,63.23
2018-12-23T10:02:22.119Z,62.99
2018-12-23T10:03:22.306Z,66.16
2018-12-23T10:04:22.484Z,64.45
2018-12-23T10:05:22.669Z,64.21
2018-12-23T10:06:22.855Z,62.74
2018-12-23T10:07:23.049Z,63.48
2018-12-23T10:08:23.231Z,64.21
2018-12-23T10:09:23.434Z,64.45
2018-12-23T10:10:28.323Z,63.48
2018-12-23T10:11:23.813Z,62.74
2018-12-23T10:12:23.979Z,65.19
2018-12-23T10:13:24.166Z,64.21
2018-12-23T10:14:24.332Z,65.92
2018-12-23T10:15:24.519Z,71.53
2018-12-23T10:16:24.695Z,64.21
2018-12-23T10:17:24.884Z,63.96
2018-12-23T10:18:25.072Z,64.94
2018-12-23T10:19:25.257Z,63.96
2018-12-23T10:20:25.465Z,63.48
2018-12-23T10:21:25.622Z,70.31
2018-12-23T10:22:25.814Z,64.94
2018-12-23T10:23:26.008Z,62.99
2018-12-23T10:24:26.186Z,62.99
2018-12-23T10:25:26.383Z,62.99
2018-12-23T10:26:26.595Z,62.99
2018-12-23T10:27:26.778Z,62.99
2018-12-23T10:28:26.958Z,62.50
2018-12-23T10:29:28.438Z,64.45
2018-12-23T10:30:27.329Z,63.23
2018-12-23T10:31:27.531Z,62.99
2018-12-23T10:32:27.714Z,62.01
2018-12-23T10:33:27.900Z,62.50
2018-12-23T10:34:28.089Z,71.29
2018-12-23T10:35:28.274Z,62.01
2018-12-23T10:36:28.464Z,63.48
2018-12-23T10:37:28.644Z,63.48
2018-12-23T10:38:28.828Z,65.19
2018-12-23T10:39:29.027Z,62.50
2018-12-23T10:40:29.198Z,62.01
2018-12-23T10:41:29.428Z,60.79
2018-12-23T10:42:29.594Z,64.45
2018-12-23T10:43:29.771Z,62.26
2018-12-23T10:44:29.959Z,62.26
2018-12-23T10:45:30.156Z,64.94
2018-12-23T10:46:30.331Z,62.99
2018-12-23T10:47:30.515Z,61.28
2018-12-23T10:48:30.696Z,61.77
2018-12-23T10:49:30.882Z,63.72
2018-12-23T10:50:31.148Z,63.48
2018-12-23T10:51:31.259Z,62.50
2018-12-23T10:52:31.559Z,62.01
2018-12-23T10:53:31.631Z,63.23
2018-12-23T10:54:31.821Z,63.23
2018-12-23T10:55:32.005Z,62.74
2018-12-23T10:56:32.203Z,63.23
2018-12-23T10:57:32.383Z,62.26
2018-12-23T10:58:32.575Z,62.74
2018-12-23T10:59:32.758Z,62.74
2018-12-23T11:00:32.943Z,63.23
2018-12-23T11:01:33.128Z,60.30
2018-12-23T11:02:33.313Z,62.74
2018-12-23T11:03:33.499Z,63.96
2018-12-23T11:04:33.688Z,63.48
2018-12-23T11:05:33.881Z,65.19
2018-12-23T11:06:34.073Z,67.87
2018-12-23T11:07:34.255Z,62.26
2018-12-23T11:08:34.451Z,61.77
2018-12-23T11:09:34.648Z,66.65
2018-12-23T11:10:34.837Z,62.50
2018-12-23T11:11:35.019Z,61.28
2018-12-23T11:12:35.216Z,63.23
2018-12-23T11:13:35.400Z,63.72
2018-12-23T11:14:35.592Z,64.45
2018-12-23T11:15:35.847Z,64.21
2018-12-23T11:16:35.961Z,64.70
2018-12-23T11:17:36.146Z,64.21
2018-12-23T11:18:36.344Z,62.50
2018-12-23T11:19:36.527Z,62.01
2018-12-23T11:20:36.714Z,70.80
2018-12-23T11:21:37.307Z,62.01
2018-12-23T11:22:37.100Z,62.99
2018-12-23T11:23:37.288Z,63.48
2018-12-23T11:24:37.488Z,63.96
2018-12-23T11:25:37.670Z,62.01
2018-12-23T11:26:37.861Z,63.23
2018-12-23T11:27:38.041Z,63.72
2018-12-23T11:28:38.239Z,62.01
2018-12-23T11:29:38.427Z,62.99
2018-12-23T11:30:38.613Z,64.45
2018-12-23T11:31:38.796Z,60.30
2018-12-23T11:32:38.997Z,64.21
2018-12-23T11:33:39.177Z,64.21
2018-12-23T11:34:39.373Z,61.52
2018-12-23T11:35:39.565Z,63.23
2018-12-23T11:36:39.750Z,62.50
2018-12-23T11:37:39.941Z,62.99
2018-12-23T11:38:40.137Z,62.74
2018-12-23T11:39:40.321Z,62.99
2018-12-23T11:40:40.505Z,60.30
2018-12-23T11:41:40.696Z,63.48
2018-12-23T11:42:40.879Z,65.19
2018-12-23T11:43:41.066Z,64.94
2018-12-23T11:44:41.252Z,62.74
2018-12-23T11:45:41.443Z,64.45
2018-12-23T11:46:41.642Z,65.43
2018-12-23T11:47:41.823Z,63.72
2018-12-23T11:48:42.010Z,61.04
2018-12-23T11:49:42.190Z,62.01
2018-12-23T11:50:42.413Z,63.48
2018-12-23T11:51:42.609Z,65.19
2018-12-23T11:52:42.793Z,61.77
2018-12-23T11:53:42.978Z,61.52
2018-12-23T11:54:43.170Z,61.52
2018-12-23T11:55:43.364Z,61.52
2018-12-23T11:56:43.561Z,62.01
2018-12-23T11:57:43.746Z,62.99
2018-12-23T11:58:43.938Z,62.50
2018-12-23T11:59:44.145Z,62.50
2018-12-23T12:00:44.326Z,62.99
2018-12-23T12:01:44.509Z,63.23
2018-12-23T12:02:44.703Z,62.50
2018-12-23T12:03:44.897Z,62.74
2018-12-23T12:04:45.085Z,65.43
2018-12-23T12:05:45.270Z,62.50
2018-12-23T12:06:45.454Z,64.21
2018-12-23T12:07:45.642Z,61.77
2018-12-23T12:08:45.831Z,65.19
2018-12-23T12:09:46.026Z,62.74
2018-12-23T12:10:46.214Z,62.50
2018-12-23T12:11:46.412Z,63.72
2018-12-23T12:12:46.616Z,62.74
2018-12-23T12:13:46.804Z,64.70
2018-12-23T12:14:46.996Z,63.23
2018-12-23T12:15:47.181Z,62.74
2018-12-23T12:16:47.367Z,63.23
2018-12-23T12:17:47.554Z,61.77
2018-12-23T12:18:47.736Z,63.96
2018-12-23T12:19:47.929Z,62.50
2018-12-23T12:20:48.119Z,61.28
2018-12-23T12:21:48.314Z,61.77
2018-12-23T12:22:48.586Z,64.21
2018-12-23T12:23:48.639Z,61.77
2018-12-23T12:24:48.824Z,62.26
2018-12-23T12:25:49.020Z,62.50
2018-12-23T12:26:49.198Z,64.94
2018-12-23T12:27:49.389Z,61.52
2018-12-23T12:28:49.579Z,65.19
2018-12-23T12:29:49.787Z,66.16
2018-12-23T12:30:49.965Z,62.26
2018-12-23T12:31:50.164Z,62.26
2018-12-23T12:32:50.373Z,62.74
2018-12-23T12:33:50.571Z,64.94
2018-12-23T12:34:50.757Z,62.99
2018-12-23T12:35:50.946Z,63.23
2018-12-23T12:36:51.129Z,64.94
2018-12-23T12:37:51.317Z,64.45
2018-12-23T12:38:52.310Z,61.77
2018-12-23T12:39:51.688Z,65.67
2018-12-23T12:40:52.400Z,64.21
2018-12-23T12:41:52.060Z,68.12
2018-12-23T12:42:52.245Z,63.23
2018-12-23T12:43:52.436Z,63.72
2018-12-23T12:44:52.615Z,61.52
2018-12-23T12:46:00.355Z,64.21
2018-12-23T12:46:52.996Z,62.74
2018-12-23T12:47:53.187Z,64.21
2018-12-23T12:48:53.369Z,63.23
2018-12-23T12:49:53.550Z,62.99
2018-12-23T12:50:53.727Z,62.01
2018-12-23T12:51:53.911Z,62.99
2018-12-23T12:52:54.101Z,62.99
2018-12-23T12:53:54.291Z,65.67
2018-12-23T12:54:54.476Z,61.52